Time;durP1;ratioP1;P1;durP2;ratioP2;P2;SDS_P1;SDS_P2;PMS_P1;PMS_P2;Temp;Humidity;BMP_temperature;BMP_pressure;BME280_temperature;BME280_humidity;BME280_pressure;Samples;Min_cycle;Max_cycle;Signal;HPM_P1;HPM_P2
2022/11/16 00:00:36;;;;;;;4.83;4.63;;;22.10;76.70;;;;;;5036392;28;20909;-64
2022/11/16 00:03:03;;;;;;;4.47;4.27;;;22.10;76.70;;;;;;5017719;28;20518;-63
2022/11/16 00:05:32;;;;;;;4.57;4.47;;;22.00;76.70;;;;;;5016309;28;20496;-63
2022/11/16 00:07:59;;;;;;;5.00;4.60;;;22.10;76.80;;;;;;5014427;28;20466;-63
2022/11/16 00:10:25;;;;;;;4.40;4.20;;;22.10;77.00;;;;;;5031498;28;20547;-64
2022/11/16 00:12:52;;;;;;;4.07;3.87;;;22.00;76.90;;;;;;5035665;28;20903;-65
2022/11/16 00:15:19;;;;;;;4.53;4.43;;;22.00;77.00;;;;;;5036320;28;20528;-63
2022/11/16 00:17:46;;;;;;;4.57;4.47;;;22.00;77.10;;;;;;5035401;28;20476;-65
2022/11/16 00:20:13;;;;;;;4.63;4.43;;;22.00;77.20;;;;;;5035618;28;20514;-64
2022/11/16 00:22:44;;;;;;;4.23;4.10;;;22.00;77.20;;;;;;5036347;28;20571;-64
2022/11/16 00:25:11;;;;;;;4.83;4.63;;;22.00;77.30;;;;;;5036862;28;20548;-63
2022/11/16 00:27:38;;;;;;;3.90;3.77;;;22.00;77.40;;;;;;5034087;28;20520;-64
2022/11/16 00:30:06;;;;;;;4.10;4.00;;;22.00;77.50;;;;;;5033973;28;20809;-64
2022/11/16 00:32:34;;;;;;;4.00;3.90;;;22.00;77.60;;;;;;5036988;28;20449;-65
2022/11/16 00:35:01;;;;;;;4.60;4.40;;;22.00;77.60;;;;;;5035728;28;20438;-64
2022/11/16 00:37:28;;;;;;;4.47;4.30;;;22.00;77.70;;;;;;5035163;28;20445;-64
2022/11/16 00:39:56;;;;;;;3.90;3.80;;;22.00;78.50;;;;;;5035892;28;20540;-64
2022/11/16 00:42:24;;;;;;;4.07;3.97;;;21.90;77.70;;;;;;5035730;28;20477;-65
2022/11/16 00:44:50;;;;;;;4.23;4.10;;;21.90;77.80;;;;;;5036555;28;20531;-64
2022/11/16 00:47:17;;;;;;;4.07;3.97;;;21.90;77.90;;;;;;5036682;28;21077;-64
2022/11/16 00:49:44;;;;;;;4.50;4.30;;;21.90;78.00;;;;;;5035459;28;20469;-64
2022/11/16 00:52:11;;;;;;;3.60;3.50;;;21.90;78.00;;;;;;5033886;28;21009;-64
2022/11/16 00:54:38;;;;;;;4.23;4.13;;;21.90;78.00;;;;;;5037467;28;20467;-63
2022/11/16 00:57:06;;;;;;;4.10;4.00;;;21.90;78.10;;;;;;5036182;28;20535;-64
2022/11/16 00:59:33;;;;;;;4.37;4.27;;;21.90;78.80;;;;;;5036955;28;20528;-64
2022/11/16 01:02:02;;;;;;;4.07;3.97;;;21.90;78.00;;;;;;5036609;28;20472;-65
2022/11/16 01:04:29;;;;;;;4.30;4.20;;;21.90;78.10;;;;;;5035343;28;21025;-64
2022/11/16 01:06:56;;;;;;;4.63;4.43;;;21.90;78.80;;;;;;5034328;28;20563;-63
2022/11/16 01:09:23;;;;;;;3.70;3.60;;;22.00;78.30;;;;;;5033103;28;20445;-64
2022/11/16 01:12:09;;;;;;;4.13;4.03;;;22.00;78.30;;;;;;5034725;28;20447;-64
2022/11/16 01:14:40;;;;;;;4.37;4.20;;;21.90;78.30;;;;;;5036726;28;20523;-64
2022/11/16 01:17:07;;;;;;;4.17;3.93;;;21.90;78.30;;;;;;5035890;28;20510;-64
2022/11/16 01:19:34;;;;;;;4.33;4.23;;;21.90;78.40;;;;;;5033220;28;20477;-65
2022/11/16 01:22:01;;;;;;;4.50;4.30;;;21.90;78.40;;;;;;5034019;28;20531;-63
2022/11/16 01:24:28;;;;;;;3.70;3.63;;;21.90;78.50;;;;;;5034820;28;20575;-65
2022/11/16 01:26:56;;;;;;;3.90;3.80;;;21.90;78.50;;;;;;5033191;28;20539;-64
2022/11/16 01:29:25;;;;;;;3.80;3.70;;;21.90;78.60;;;;;;5033988;28;20453;-64
2022/11/16 01:31:53;;;;;;;4.47;4.30;;;21.90;78.60;;;;;;5034410;28;20472;-64
2022/11/16 01:34:20;;;;;;;4.63;4.53;;;21.90;78.60;;;;;;5033711;28;20488;-64
2022/11/16 01:36:47;;;;;;;4.13;4.03;;;21.90;78.70;;;;;;5033166;28;20481;-63
2022/11/16 01:39:15;;;;;;;3.63;3.53;;;21.90;78.80;;;;;;5034634;28;20477;-64
2022/11/16 01:41:44;;;;;;;4.50;4.30;;;21.90;78.80;;;;;;5033693;28;20875;-64
2022/11/16 01:44:43;;;;;;;4.20;4.10;;;21.90;78.80;;;;;;5034080;28;20520;-64
2022/11/16 01:47:14;;;;;;;4.10;4.00;;;21.90;78.90;;;;;;5032000;28;20476;-64
2022/11/16 01:49:44;;;;;;;4.37;4.27;;;21.90;79.00;;;;;;5033531;28;20885;-64
2022/11/16 01:52:15;;;;;;;4.23;4.03;;;21.80;79.00;;;;;;5034653;28;20924;-64
2022/11/16 01:54:45;;;;;;;4.33;4.23;;;21.80;79.00;;;;;;5034619;28;20457;-64
2022/11/16 01:57:16;;;;;;;4.13;4.00;;;21.90;79.20;;;;;;5034189;28;20477;-64
2022/11/16 01:59:46;;;;;;;3.63;3.53;;;21.90;79.30;;;;;;5032480;28;20861;-64
2022/11/16 02:02:15;;;;;;;3.93;3.83;;;21.80;79.20;;;;;;5032311;28;20520;-64
2022/11/16 02:04:43;;;;;;;4.10;4.00;;;21.80;79.30;;;;;;5032293;28;20908;-64
2022/11/16 02:07:19;;;;;;;4.50;4.40;;;21.80;79.30;;;;;;5031789;28;20510;-64
2022/11/16 02:10:03;;;;;;;3.83;3.73;;;21.80;79.30;;;;;;5032782;28;20547;-63
2022/11/16 02:13:10;;;;;;;5.43;5.20;;;21.80;79.40;;;;;;5034045;28;20457;-63
2022/11/16 02:15:45;;;;;;;4.93;4.50;;;21.80;79.50;;;;;;5029513;28;20778;-62
2022/11/16 02:18:24;;;;;;;3.83;3.73;;;21.80;79.50;;;;;;5033006;28;20458;-63
2022/11/16 02:21:21;;;;;;;4.67;4.47;;;21.80;79.50;;;;;;5032746;28;20479;-64
2022/11/16 02:24:36;;;;;;;3.83;3.73;;;21.80;79.50;;;;;;5025528;28;20526;-63
2022/11/16 02:27:25;;;;;;;3.60;3.50;;;21.80;79.50;;;;;;5015228;28;20514;-63
2022/11/16 02:29:55;;;;;;;4.13;3.93;;;21.80;79.50;;;;;;5014421;28;20560;-64
2022/11/16 02:32:28;;;;;;;4.30;4.20;;;21.80;79.60;;;;;;5014242;28;20557;-64
2022/11/16 02:35:01;;;;;;;3.90;3.80;;;21.80;79.70;;;;;;5013368;28;20465;-63
2022/11/16 02:37:33;;;;;;;3.70;3.60;;;21.80;79.70;;;;;;5014071;28;20449;-61
2022/11/16 02:40:05;;;;;;;3.90;3.80;;;21.80;79.80;;;;;;5014808;28;20501;-64
2022/11/16 02:42:36;;;;;;;4.10;4.00;;;21.80;79.80;;;;;;5015425;28;20533;-63
2022/11/16 02:45:07;;;;;;;4.00;3.90;;;21.80;79.80;;;;;;5034024;28;20480;-63
2022/11/16 02:47:36;;;;;;;3.90;3.80;;;21.80;79.80;;;;;;5033566;28;20513;-63
2022/11/16 02:50:08;;;;;;;3.77;3.67;;;21.80;80.60;;;;;;5036439;28;20949;-64
2022/11/16 02:52:37;;;;;;;3.43;3.33;;;21.80;79.90;;;;;;5036333;28;20495;-63
2022/11/16 02:55:04;;;;;;;3.83;3.63;;;21.80;79.80;;;;;;5019011;28;20536;-64
2022/11/16 02:57:43;;;;;;;4.10;4.00;;;21.80;79.90;;;;;;5028103;28;20520;-64
2022/11/16 03:00:22;;;;;;;3.77;3.67;;;21.80;79.90;;;;;;5036937;28;20475;-64
2022/11/16 03:02:59;;;;;;;4.17;3.97;;;21.80;80.00;;;;;;5036134;28;20523;-63
2022/11/16 03:05:34;;;;;;;3.93;3.83;;;21.80;80.00;;;;;;5037006;28;20484;-65
2022/11/16 03:08:08;;;;;;;3.87;3.77;;;21.80;80.00;;;;;;5035651;28;20535;-64
2022/11/16 03:13:27;;;;;;;3.80;3.70;;;21.80;80.10;;;;;;5037360;28;20460;-64
2022/11/16 03:15:56;;;;;;;4.10;4.00;;;21.80;80.20;;;;;;5036703;28;20938;-63
2022/11/16 03:18:26;;;;;;;3.70;3.60;;;21.80;80.20;;;;;;5035838;28;20504;-57
2022/11/16 03:21:03;;;;;;;3.90;3.80;;;21.80;80.30;;;;;;5037418;28;21008;-56
2022/11/16 03:23:30;;;;;;;3.67;3.57;;;21.80;80.30;;;;;;5036244;28;20520;-59
2022/11/16 03:25:58;;;;;;;4.07;3.97;;;21.80;80.40;;;;;;5036609;28;20476;-57
2022/11/16 03:28:33;;;;;;;3.87;3.77;;;21.70;80.30;;;;;;5035641;28;20980;-54
2022/11/16 03:31:07;;;;;;;4.27;4.03;;;21.80;80.50;;;;;;5034880;28;20516;-58
2022/11/16 03:33:40;;;;;;;3.77;3.70;;;21.80;80.50;;;;;;5034529;28;20540;-57
2022/11/16 03:36:14;;;;;;;4.50;4.40;;;21.70;80.60;;;;;;5035198;28;20845;-57
2022/11/16 03:38:44;;;;;;;4.17;4.07;;;21.70;80.70;;;;;;5034841;28;20532;-57
2022/11/16 03:41:13;;;;;;;3.60;3.50;;;21.80;80.80;;;;;;5034658;28;20531;-59
2022/11/16 03:43:43;;;;;;;4.00;3.90;;;21.70;80.60;;;;;;5034323;28;20978;-60
2022/11/16 03:46:13;;;;;;;3.60;3.50;;;21.80;80.70;;;;;;5034701;28;20874;-59
2022/11/16 03:48:42;;;;;;;3.90;3.80;;;21.80;80.60;;;;;;5034401;28;20529;-63
2022/11/16 03:51:11;;;;;;;4.13;4.03;;;21.80;80.60;;;;;;5034214;28;20441;-58
2022/11/16 03:53:37;;;;;;;3.90;3.70;;;21.80;80.60;;;;;;5033859;28;20493;-54
2022/11/16 03:56:05;;;;;;;3.97;3.87;;;21.80;80.70;;;;;;5034499;28;20536;-60
2022/11/16 03:58:32;;;;;;;3.90;3.80;;;21.80;80.60;;;;;;5034008;28;20456;-55
2022/11/16 04:00:59;;;;;;;4.10;4.00;;;21.80;80.70;;;;;;5033188;28;20441;-57
2022/11/16 04:03:27;;;;;;;4.33;4.23;;;21.80;80.70;;;;;;5033572;28;20828;-57
2022/11/16 04:25:19;;;;;;;4.20;4.10;;;21.90;80.30;;;;;;5033875;28;20503;-57
2022/11/16 04:37:47;;;;;;;4.00;3.90;;;21.90;80.40;;;;;;5034012;28;20456;-57
2022/11/16 04:38:52;;;;;;;4.23;4.13;;;21.90;80.50;;;;;;5033155;28;20469;-58
2022/11/16 04:44:04;;;;;;;4.27;4.17;;;21.90;80.50;;;;;;5033490;28;20488;-59
2022/11/16 04:49:15;;;;;;;4.57;4.47;;;21.90;80.60;;;;;;5034076;28;20439;-56
2022/11/16 04:51:44;;;;;;;4.60;4.40;;;22.00;80.60;;;;;;5034308;28;20539;-59
2022/11/16 04:54:11;;;;;;;4.20;4.10;;;22.00;80.60;;;;;;5033030;28;20469;-54
2022/11/16 04:56:38;;;;;;;5.03;4.90;;;22.00;80.50;;;;;;5032766;28;20455;-55
2022/11/16 04:59:05;;;;;;;4.37;4.27;;;22.00;80.50;;;;;;5032850;28;20964;-55
2022/11/16 05:04:17;;;;;;;5.43;5.23;;;22.00;80.50;;;;;;5033435;28;20479;-60
2022/11/16 05:06:45;;;;;;;5.20;5.10;;;22.00;80.50;;;;;;5033325;28;20469;-55
2022/11/16 05:09:12;;;;;;;4.70;4.60;;;22.00;80.50;;;;;;5032847;28;20494;-58
2022/11/16 05:11:41;;;;;;;5.50;5.30;;;22.00;80.60;;;;;;5032626;28;20508;-61
2022/11/16 05:14:09;;;;;;;4.50;4.40;;;22.00;80.60;;;;;;5033249;28;20468;-60
2022/11/16 05:16:36;;;;;;;4.70;4.60;;;22.10;80.80;;;;;;5033336;28;20510;-57
2022/11/16 05:21:49;;;;;;;4.93;4.83;;;22.10;80.90;;;;;;5032677;28;20417;-54
2022/11/16 05:24:36;;;;;;;4.50;4.40;;;22.10;80.90;;;;;;5032679;28;20531;-57
2022/11/16 05:27:05;;;;;;;4.90;4.80;;;22.10;81.00;;;;;;5033050;28;20773;-57
2022/11/16 05:29:31;;;;;;;4.77;4.57;;;22.10;81.00;;;;;;5032218;28;20473;-59
2022/11/16 05:31:59;;;;;;;4.80;4.60;;;22.10;81.00;;;;;;5032305;28;20536;-55
2022/11/16 05:34:26;;;;;;;4.90;4.80;;;22.10;80.90;;;;;;5032545;28;20519;-56
2022/11/16 05:36:54;;;;;;;4.37;4.37;;;22.10;81.10;;;;;;5032795;28;20480;-61
2022/11/16 05:39:22;;;;;;;5.00;4.90;;;22.30;82.30;;;;;;5032372;28;20529;-59
2022/11/16 05:41:50;;;;;;;4.80;4.70;;;22.50;82.00;;;;;;5032804;28;20912;-59
2022/11/16 05:44:18;;;;;;;4.90;4.80;;;22.60;81.80;;;;;;5032344;28;20499;-51
2022/11/16 05:46:45;;;;;;;5.20;4.90;;;22.70;82.80;;;;;;5032588;28;20488;-60
2022/11/16 05:49:14;;;;;;;4.90;4.70;;;22.80;82.70;;;;;;5031623;28;20480;-58
2022/11/16 05:51:42;;;;;;;4.60;4.50;;;22.90;79.90;;;;;;5031629;28;20532;-59
2022/11/16 05:54:12;;;;;;;4.80;4.60;;;22.80;78.50;;;;;;5031904;28;20500;-58
2022/11/16 05:56:40;;;;;;;5.17;4.87;;;22.80;78.50;;;;;;5032177;28;20437;-55
2022/11/16 05:59:10;;;;;;;5.70;5.40;;;22.80;78.00;;;;;;5032096;28;20445;-61
2022/11/16 06:01:37;;;;;;;9.10;7.80;;;22.90;77.80;;;;;;5031770;28;21012;-55
2022/11/16 06:04:04;;;;;;;7.60;6.40;;;22.90;78.40;;;;;;5031796;28;20552;-61
2022/11/16 06:06:31;;;;;;;12.37;7.20;;;23.00;80.10;;;;;;5031844;28;20488;-55
2022/11/16 06:08:58;;;;;;;21.50;9.13;;;23.10;82.10;;;;;;5031613;28;20445;-58
2022/11/16 06:11:26;;;;;;;20.10;9.20;;;23.10;84.00;;;;;;5031862;28;20449;-58
2022/11/16 06:13:53;;;;;;;14.90;8.00;;;23.20;84.50;;;;;;5030819;28;20469;-60
2022/11/16 06:16:20;;;;;;;12.43;7.40;;;23.20;85.80;;;;;;5031822;28;20451;-55
2022/11/16 06:18:48;;;;;;;14.90;8.60;;;23.30;85.60;;;;;;5031406;28;20480;-55
2022/11/16 06:21:18;;;;;;;8.43;7.60;;;23.40;84.00;;;;;;5031755;28;20524;-53
2022/11/16 06:23:46;;;;;;;8.20;7.40;;;23.50;83.20;;;;;;5034275;28;20512;-54
2022/11/16 06:26:13;;;;;;;9.67;7.33;;;23.50;82.40;;;;;;5035689;28;20480;-55
2022/11/16 06:28:42;;;;;;;8.30;7.50;;;23.50;81.80;;;;;;5035341;28;20441;-57
2022/11/16 06:31:09;;;;;;;10.57;7.83;;;23.50;81.20;;;;;;5035829;28;20532;-53
2022/11/16 06:33:37;;;;;;;12.47;8.30;;;23.50;80.70;;;;;;5035736;28;20911;-52
2022/11/16 06:36:06;;;;;;;8.13;7.33;;;23.50;80.10;;;;;;5035792;28;20531;-52
2022/11/16 06:38:33;;;;;;;8.40;6.47;;;23.50;79.80;;;;;;5035437;28;20480;-54
2022/11/16 06:41:00;;;;;;;6.63;6.03;;;23.50;79.40;;;;;;5036064;28;20447;-51
2022/11/16 06:43:27;;;;;;;7.67;6.97;;;23.50;79.10;;;;;;5035524;28;20483;-56
2022/11/16 06:45:57;;;;;;;8.70;7.70;;;23.50;78.80;;;;;;5035394;28;20567;-53
2022/11/16 06:48:24;;;;;;;9.80;6.50;;;23.50;78.60;;;;;;5035154;28;20453;-55
2022/11/16 06:50:52;;;;;;;8.07;6.57;;;23.50;78.30;;;;;;5035382;28;20532;-54
2022/11/16 06:53:20;;;;;;;7.33;6.73;;;23.50;78.20;;;;;;5035391;28;20534;-53
2022/11/16 06:55:48;;;;;;;9.23;8.03;;;23.40;77.90;;;;;;5035404;28;20469;-57
2022/11/16 06:58:15;;;;;;;6.50;6.00;;;23.50;77.80;;;;;;5034984;28;20492;-53
2022/11/16 07:00:42;;;;;;;9.60;7.30;;;23.40;77.60;;;;;;5035203;28;20445;-54
2022/11/16 07:03:10;;;;;;;7.10;6.50;;;23.40;77.50;;;;;;5035386;28;20501;-52
2022/11/16 07:05:40;;;;;;;6.80;6.30;;;23.40;77.30;;;;;;5035001;28;20569;-53
2022/11/16 07:08:08;;;;;;;7.37;6.77;;;23.40;77.20;;;;;;5035049;28;20449;-52
2022/11/16 07:10:35;;;;;;;7.20;6.73;;;23.40;77.80;;;;;;5035332;28;20519;-54
2022/11/16 07:13:03;;;;;;;6.73;6.43;;;23.30;76.90;;;;;;5036545;28;20473;-51
2022/11/16 07:15:31;;;;;;;6.83;6.27;;;23.30;76.70;;;;;;5037437;28;20834;-55
2022/11/16 07:18:03;;;;;;;13.90;8.97;;;23.30;76.70;;;;;;5047771;28;20468;-55
2022/11/16 07:20:32;;;;;;;6.03;5.73;;;23.30;76.60;;;;;;5050199;28;20460;-59
2022/11/16 07:23:04;;;;;;;8.47;7.70;;;23.20;76.40;;;;;;5051006;28;21028;-59
2022/11/16 07:25:33;;;;;;;8.43;7.60;;;23.20;77.10;;;;;;5051000;28;20480;-54
2022/11/16 07:28:00;;;;;;;6.93;6.53;;;23.20;76.30;;;;;;5049781;28;20593;-55
2022/11/16 07:30:27;;;;;;;6.50;6.10;;;23.20;76.20;;;;;;5036794;28;21004;-51
2022/11/16 07:32:58;;;;;;;6.67;6.00;;;23.20;76.30;;;;;;5037300;28;20543;-57
2022/11/16 07:35:25;;;;;;;7.00;6.57;;;23.20;76.20;;;;;;5035001;28;20821;-51
2022/11/16 07:37:55;;;;;;;7.47;6.87;;;23.10;76.80;;;;;;5036398;28;20483;-53
2022/11/16 07:40:22;;;;;;;6.00;5.80;;;23.10;76.10;;;;;;5036920;28;20477;-51
2022/11/16 07:42:49;;;;;;;7.40;6.63;;;23.10;76.00;;;;;;5036126;28;20473;-59
2022/11/16 07:45:16;;;;;;;8.33;7.83;;;23.10;75.90;;;;;;5036908;28;20481;-51
2022/11/16 07:47:42;;;;;;;7.30;6.80;;;23.10;76.00;;;;;;5035106;28;20495;-57
2022/11/16 07:50:11;;;;;;;7.00;6.37;;;23.00;75.60;;;;;;5037459;28;20441;-54
2022/11/16 07:52:38;;;;;;;6.20;5.70;;;23.00;75.60;;;;;;5036002;28;20467;-52
2022/11/16 07:55:08;;;;;;;6.73;6.23;;;23.00;75.50;;;;;;5035765;28;21034;-55
2022/11/16 07:57:35;;;;;;;7.17;6.63;;;23.00;75.50;;;;;;5036200;28;20947;-51
2022/11/16 08:00:02;;;;;;;6.33;5.90;;;23.00;75.60;;;;;;5037100;28;20449;-51
2022/11/16 08:02:30;;;;;;;6.43;6.07;;;22.90;75.50;;;;;;5037573;28;20527;-56
2022/11/16 08:04:57;;;;;;;6.40;6.10;;;22.90;75.30;;;;;;5036941;28;20492;-54
2022/11/16 08:07:23;;;;;;;6.37;6.00;;;22.90;75.10;;;;;;5035755;28;20535;-52
2022/11/16 08:09:50;;;;;;;6.90;6.43;;;22.90;75.10;;;;;;5034826;28;20452;-51
2022/11/16 08:12:18;;;;;;;5.87;5.43;;;22.90;75.00;;;;;;5033771;28;20482;-57
2022/11/16 08:14:46;;;;;;;6.00;5.70;;;22.90;75.00;;;;;;5035040;28;20541;-56
2022/11/16 08:17:13;;;;;;;6.00;5.70;;;22.90;74.90;;;;;;5034655;28;20463;-56
2022/11/16 08:19:42;;;;;;;6.03;5.73;;;22.80;74.70;;;;;;5036428;28;20443;-56
2022/11/16 08:22:10;;;;;;;5.73;5.43;;;22.80;74.70;;;;;;5036932;28;20842;-54
2022/11/16 08:24:40;;;;;;;6.10;5.90;;;22.80;74.70;;;;;;5034617;28;20461;-56
2022/11/16 08:27:08;;;;;;;6.37;6.07;;;22.80;74.60;;;;;;5036359;28;20445;-58
2022/11/16 08:29:36;;;;;;;5.23;5.03;;;22.80;74.60;;;;;;5034707;28;20949;-52
2022/11/16 08:32:03;;;;;;;6.47;6.17;;;22.80;74.50;;;;;;5033361;28;20931;-51
2022/11/16 08:34:30;;;;;;;5.93;5.60;;;22.80;74.50;;;;;;5035794;28;20499;-53
2022/11/16 08:36:57;;;;;;;5.60;5.20;;;22.70;74.30;;;;;;5034936;28;20449;-58
2022/11/16 08:39:24;;;;;;;5.60;5.40;;;22.80;74.40;;;;;;5035577;28;20444;-55
2022/11/16 08:41:51;;;;;;;5.40;5.20;;;22.70;74.30;;;;;;5034463;28;20528;-55
2022/11/16 08:44:18;;;;;;;6.53;6.03;;;22.70;74.20;;;;;;5035051;28;20572;-54
2022/11/16 08:46:46;;;;;;;5.73;5.43;;;22.70;74.20;;;;;;5036051;28;20922;-52
2022/11/16 08:49:14;;;;;;;5.47;5.27;;;22.70;74.20;;;;;;5037326;28;20451;-56
2022/11/16 08:51:41;;;;;;;5.80;5.60;;;22.70;74.10;;;;;;5036301;28;20544;-55
2022/11/16 08:54:09;;;;;;;6.20;5.83;;;22.70;74.10;;;;;;5036119;28;20461;-51
2022/11/16 08:56:36;;;;;;;5.50;5.30;;;22.70;74.10;;;;;;5036596;28;20467;-51
2022/11/16 08:59:03;;;;;;;5.43;5.10;;;22.70;74.10;;;;;;5035452;28;20451;-54
2022/11/16 09:01:31;;;;;;;5.63;5.43;;;22.60;74.00;;;;;;5036341;28;20531;-55
2022/11/16 09:04:00;;;;;;;5.10;4.90;;;22.60;74.00;;;;;;5036570;28;20553;-52
2022/11/16 09:06:28;;;;;;;5.83;5.53;;;22.60;74.00;;;;;;5035712;28;21089;-53
2022/11/16 09:08:55;;;;;;;5.43;5.20;;;22.60;73.90;;;;;;5033559;28;20512;-57
2022/11/16 09:11:24;;;;;;;6.00;5.70;;;22.60;74.00;;;;;;5033849;28;20455;-53
2022/11/16 09:13:53;;;;;;;5.20;5.00;;;22.60;73.90;;;;;;5033091;28;20522;-57
2022/11/16 09:16:21;;;;;;;6.13;5.73;;;22.60;74.70;;;;;;5032351;28;20528;-57
2022/11/16 09:18:48;;;;;;;5.13;5.03;;;22.50;73.80;;;;;;5032449;28;20473;-51
2022/11/16 09:21:21;;;;;;;5.40;5.10;;;22.50;73.80;;;;;;5032829;28;20460;-52
2022/11/16 09:23:49;;;;;;;5.80;5.53;;;22.50;73.80;;;;;;5032477;28;21008;-51
2022/11/16 09:26:19;;;;;;;4.83;4.63;;;22.50;73.80;;;;;;5032277;28;20485;-54
2022/11/16 09:28:47;;;;;;;5.13;5.03;;;22.50;74.60;;;;;;5032338;28;20487;-54
2022/11/16 09:31:15;;;;;;;5.43;5.23;;;22.50;73.80;;;;;;5032465;28;20524;-53
2022/11/16 09:33:42;;;;;;;5.67;5.57;;;22.50;74.00;;;;;;5031649;28;20986;-54
2022/11/16 09:36:10;;;;;;;5.93;5.63;;;22.40;73.80;;;;;;5032565;28;20806;-55
2022/11/16 09:38:42;;;;;;;6.60;6.30;;;22.40;75.80;;;;;;5032078;28;20457;-56
2022/11/16 09:41:16;;;;;;;5.70;5.40;;;22.40;79.60;;;;;;5032089;28;20480;-54
2022/11/16 09:43:52;;;;;;;6.27;6.07;;;22.40;80.30;;;;;;5031763;28;20465;-53
2022/11/16 09:46:23;;;;;;;5.77;5.50;;;22.50;80.50;;;;;;5031810;28;20483;-51
2022/11/16 09:48:51;;;;;;;5.30;5.20;;;22.50;80.10;;;;;;5032056;28;20869;-57
2022/11/16 09:51:22;;;;;;;5.70;5.50;;;22.60;79.70;;;;;;5032274;28;20456;-55
2022/11/16 09:53:56;;;;;;;5.50;5.30;;;22.60;79.60;;;;;;5032219;28;20826;-55
2022/11/16 09:56:25;;;;;;;6.07;5.77;;;22.70;79.30;;;;;;5032518;28;20455;-55
2022/11/16 09:58:59;;;;;;;5.80;5.40;;;22.70;79.20;;;;;;5032163;28;20985;-61
2022/11/16 10:01:29;;;;;;;4.80;4.60;;;22.70;79.00;;;;;;5013866;28;20599;-58
2022/11/16 10:04:02;;;;;;;5.30;5.00;;;22.80;79.00;;;;;;5032110;28;20532;-52
2022/11/16 10:06:38;;;;;;;6.50;6.20;;;22.80;79.50;;;;;;5032997;28;20508;-59
2022/11/16 10:09:12;;;;;;;5.63;5.37;;;22.80;79.50;;;;;;5033832;28;20870;-53
2022/11/16 10:12:03;;;;;;;5.77;5.47;;;22.80;78.60;;;;;;5033906;28;20812;-58
2022/11/16 10:15:06;;;;;;;6.00;5.60;;;22.80;78.50;;;;;;5014246;28;20470;-57
2022/11/16 10:17:46;;;;;;;5.00;4.80;;;22.90;78.40;;;;;;4981671;28;20445;-53
2022/11/16 10:20:40;;;;;;;5.90;5.60;;;22.90;78.30;;;;;;5013357;28;20477;-56
2022/11/16 10:23:16;;;;;;;6.00;5.70;;;22.90;77.70;;;;;;5031779;28;21046;-57
2022/11/16 10:25:46;;;;;;;6.57;6.20;;;22.90;77.50;;;;;;5013113;28;20489;-57
2022/11/16 10:28:33;;;;;;;6.00;5.60;;;23.00;77.60;;;;;;5013047;28;20448;-55
2022/11/16 10:31:10;;;;;;;6.30;5.83;;;22.90;78.10;;;;;;5020316;28;20958;-50
2022/11/16 10:33:38;;;;;;;6.33;5.93;;;22.90;77.00;;;;;;5033329;28;20553;-59
2022/11/16 10:36:09;;;;;;;5.40;5.10;;;23.00;77.10;;;;;;5033841;28;20532;-54
2022/11/16 10:38:37;;;;;;;5.80;5.60;;;22.90;76.90;;;;;;5032500;28;20468;-55
2022/11/16 10:41:17;;;;;;;5.53;5.33;;;23.00;76.80;;;;;;5031717;28;20480;-56
2022/11/16 10:43:45;;;;;;;5.60;5.50;;;23.00;76.50;;;;;;5032624;28;20556;-61
2022/11/16 10:46:20;;;;;;;5.00;4.90;;;23.00;76.20;;;;;;5032633;28;20580;-60
2022/11/16 10:48:58;;;;;;;6.03;5.83;;;23.00;77.20;;;;;;5034150;28;20445;-62
2022/11/16 10:51:25;;;;;;;6.10;5.73;;;23.00;76.80;;;;;;5033535;28;20472;-63
2022/11/16 10:53:54;;;;;;;5.90;5.60;;;23.00;76.90;;;;;;5033817;28;20473;-61
2022/11/16 10:56:27;;;;;;;6.70;6.40;;;22.90;76.60;;;;;;5034655;28;20802;-61
2022/11/16 10:58:57;;;;;;;6.10;5.90;;;22.90;76.40;;;;;;5034111;28;20469;-63
2022/11/16 11:01:40;;;;;;;5.87;5.53;;;22.90;76.50;;;;;;5034205;28;20481;-61
2022/11/16 11:04:22;;;;;;;6.23;6.00;;;22.80;76.30;;;;;;5033298;28;20567;-62
2022/11/16 11:06:51;;;;;;;6.23;5.87;;;22.80;76.20;;;;;;5031676;28;20481;-62
2022/11/16 11:09:29;;;;;;;6.13;5.93;;;22.70;76.00;;;;;;5036058;28;20480;-62
2022/11/16 11:15:01;;;;;;;6.20;6.00;;;22.70;75.80;;;;;;5036672;28;20443;-62
2022/11/16 11:17:29;;;;;;;6.73;6.40;;;22.60;75.70;;;;;;5037035;28;20445;-62
2022/11/16 11:20:00;;;;;;;5.23;5.13;;;22.50;75.70;;;;;;5037134;28;20456;-62
2022/11/16 11:22:28;;;;;;;5.77;5.67;;;22.50;75.90;;;;;;5037143;28;20445;-62
2022/11/16 11:24:55;;;;;;;6.50;6.20;;;22.50;76.00;;;;;;5036274;28;20469;-62
2022/11/16 11:27:26;;;;;;;6.00;5.80;;;22.40;75.90;;;;;;5036014;28;20484;-61
2022/11/16 11:29:57;;;;;;;5.90;5.80;;;22.40;76.00;;;;;;5036814;28;20445;-62
2022/11/16 11:32:29;;;;;;;6.27;6.07;;;22.30;75.90;;;;;;5035118;28;20449;-63
2022/11/16 11:34:58;;;;;;;6.10;5.90;;;22.30;76.00;;;;;;5034980;28;20544;-62
2022/11/16 11:37:30;;;;;;;5.90;5.80;;;22.30;76.00;;;;;;5035274;28;20495;-62
2022/11/16 11:40:23;;;;;;;5.93;5.70;;;22.30;76.00;;;;;;5034938;28;20456;-62
2022/11/16 11:43:00;;;;;;;6.77;5.90;;;22.20;76.10;;;;;;5025697;28;20532;-64
2022/11/16 11:45:38;;;;;;;6.50;6.10;;;22.20;76.00;;;;;;5059628;22;20572;-63
2022/11/16 11:48:21;;;;;;;6.30;6.10;;;22.20;76.10;;;;;;5034059;28;20528;-63
2022/11/16 11:50:52;;;;;;;6.47;6.27;;;22.20;76.10;;;;;;5034401;28;20866;-64
2022/11/16 11:53:37;;;;;;;6.10;5.90;;;22.10;76.00;;;;;;5034000;28;20543;-64
2022/11/16 11:56:04;;;;;;;6.77;6.47;;;22.20;76.10;;;;;;5034086;28;20491;-63
2022/11/16 11:58:36;;;;;;;5.70;5.60;;;22.10;75.90;;;;;;5033845;28;20528;-63
2022/11/16 12:01:36;;;;;;;6.20;6.00;;;22.10;76.00;;;;;;5034063;28;20540;-63
2022/11/16 12:04:31;;;;;;;5.70;5.50;;;22.10;75.90;;;;;;5033902;28;20894;-64
2022/11/16 12:07:04;;;;;;;5.70;5.60;;;22.10;75.90;;;;;;5020838;28;20523;-64
2022/11/16 12:09:37;;;;;;;6.53;6.23;;;22.10;75.90;;;;;;5033917;28;20532;-64
2022/11/16 12:12:19;;;;;;;6.13;5.93;;;22.10;76.00;;;;;;5033762;28;20447;-64
2022/11/16 12:15:07;;;;;;;5.67;5.50;;;22.00;75.90;;;;;;5033681;28;20511;-64
2022/11/16 12:17:45;;;;;;;5.60;5.50;;;22.00;75.90;;;;;;5033552;28;20691;-64
2022/11/16 12:20:26;;;;;;;6.53;6.30;;;22.00;75.90;;;;;;5033015;28;20488;-63
2022/11/16 12:23:26;;;;;;;5.77;5.67;;;22.00;75.90;;;;;;5033656;28;20528;-64
2022/11/16 12:26:01;;;;;;;6.13;6.03;;;22.00;75.90;;;;;;5033434;28;20442;-64
2022/11/16 12:28:49;;;;;;;5.80;5.60;;;22.00;75.90;;;;;;5033312;28;20495;-64
2022/11/16 12:31:51;;;;;;;5.80;5.60;;;22.00;76.00;;;;;;5033607;28;20875;-64
2022/11/16 12:34:29;;;;;;;6.00;5.80;;;22.00;76.00;;;;;;5033312;28;20543;-64
2022/11/16 12:37:03;;;;;;;6.00;5.80;;;21.90;75.70;;;;;;5033178;28;20487;-64
2022/11/16 12:39:34;;;;;;;5.70;5.50;;;22.00;76.00;;;;;;5033667;28;20532;-64
2022/11/16 12:42:31;;;;;;;6.10;5.70;;;21.90;75.80;;;;;;5033221;28;20445;-64
2022/11/16 12:45:34;;;;;;;5.50;5.30;;;21.90;75.90;;;;;;5032987;28;20477;-64
2022/11/16 12:48:40;;;;;;;6.50;6.30;;;21.90;75.90;;;;;;5001465;28;20526;-64
2022/11/16 12:51:16;;;;;;;6.20;6.10;;;21.90;75.90;;;;;;5032952;28;20445;-64
2022/11/16 12:53:57;;;;;;;6.37;6.17;;;21.90;76.10;;;;;;5032938;28;20507;-64
2022/11/16 12:56:33;;;;;;;6.00;5.80;;;21.90;76.20;;;;;;5032782;28;21018;-64
2022/11/16 12:59:25;;;;;;;6.10;6.00;;;21.80;76.10;;;;;;5033163;28;20447;-64
2022/11/16 13:01:59;;;;;;;6.00;5.90;;;21.80;76.20;;;;;;5032989;28;20437;-64
2022/11/16 13:04:33;;;;;;;6.10;5.90;;;21.80;76.20;;;;;;5032622;28;20544;-64
2022/11/16 13:07:04;;;;;;;5.80;5.70;;;21.80;76.40;;;;;;5032560;28;20847;-64
2022/11/16 13:09:34;;;;;;;5.83;5.73;;;21.80;76.40;;;;;;5032664;28;20440;-63
2022/11/16 13:12:05;;;;;;;5.67;5.57;;;21.80;76.40;;;;;;5032866;28;20536;-64
2022/11/16 13:14:36;;;;;;;5.67;5.57;;;21.70;76.30;;;;;;5032588;28;20504;-63
2022/11/16 13:17:05;;;;;;;6.30;6.13;;;21.70;76.20;;;;;;5032517;28;20472;-63
2022/11/16 13:19:36;;;;;;;5.80;5.60;;;21.70;76.30;;;;;;5032437;28;20532;-64
2022/11/16 13:22:12;;;;;;;5.27;5.17;;;21.70;76.20;;;;;;5032511;28;20852;-64
2022/11/16 13:24:46;;;;;;;6.00;5.80;;;21.70;76.30;;;;;;5032345;28;20473;-63
2022/11/16 13:27:28;;;;;;;4.90;4.80;;;21.70;76.30;;;;;;5032077;28;20481;-63
2022/11/16 13:30:00;;;;;;;5.23;5.10;;;21.70;76.30;;;;;;5032481;28;20440;-64
2022/11/16 13:32:38;;;;;;;5.20;5.10;;;21.70;76.20;;;;;;5032189;28;20859;-64
2022/11/16 13:35:13;;;;;;;6.10;6.00;;;21.70;76.20;;;;;;5032253;28;20496;-63
2022/11/16 13:37:45;;;;;;;6.20;6.00;;;21.70;76.40;;;;;;5032065;28;20794;-63
2022/11/16 13:40:24;;;;;;;6.10;5.90;;;21.70;76.20;;;;;;5032208;28;20950;-63
2022/11/16 13:43:14;;;;;;;6.17;6.00;;;21.70;76.20;;;;;;5032150;28;20528;-63
2022/11/16 13:45:43;;;;;;;5.97;5.77;;;21.70;76.20;;;;;;5032074;28;20540;-64
2022/11/16 13:48:18;;;;;;;5.83;5.73;;;21.80;76.20;;;;;;5031718;28;20491;-64
2022/11/16 13:50:51;;;;;;;6.00;5.90;;;21.70;76.10;;;;;;5032007;28;20452;-65
2022/11/16 13:53:30;;;;;;;5.70;5.60;;;21.80;76.10;;;;;;5031924;28;20484;-63